Thompson Airport
CYTH : now visible

Airfield :











YOU CAN JOIN US ON...

 
LOGIN :

Register | Disclaimer

   EN    FR    IT 

 









Legend :    VFR   Marginal VFR   IFR   Intensive IFR   Very Intensive IFR
Visi :
Ceiling :
>= 8 km
>= 3000ft
5 to 8 km
1000 to 3000 ft
1500m to 5 km
500 to 1000 ft
800 to 1500m
200 to 500 ft
< 800m
< 200 ft
Symbols :   Thunderstorms  Fog  Heavy snow  Heavy precipitations  Wind > 20 kt






- Airport Elevation : 729 ft
- IATA code : YTH


CYTH - Thompson

CURRENT METAR :
  • 172200Z 06009KT 15SM DRSN OVC043 M22/M25 A3027 RMK SC8 SLP284

EXPIRED METARs :
  • 172100Z 04010KT 15SM BKN047 OVC055 M22/M26 A3028 RMK SC5SC3 SLP290
  • 172000Z 05009KT 15SM SCT047 BKN055 OVC062 M23/M26 A3030 RMK SC3SC3SC2 PRESFR SLP297

TAF TAF CYTH
Valid from the 17 at 19:00 until the 18 at 07:00 UTC


171838Z 1719/1807 04008KT P6SM BKN060
TEMPO 1719/1807 4SM -SN BKN030 RMK NXT FCST BY 180100Z



MET'MAP, your aeronautical weather chart ! - Copyright ORBIFLY December 2007 - Disclaimer

ORBIFLY MET'MAP TEAM :

Programming & Development : Alexandra Zaïnal
Concept & original design : Baudouin d'Aumeries
Assistance for programming : Marc-Olivier Méhu
Technical & hardware support : Manuel Goepfert

Contact : metmap@orbifly.com




SOURCES & CREDITS :

   NOAA       Earth
Advisory